Flight Track Log - Related Links

Times and Time Zones

All times are in EDT time to prevent confusion due to time zone crossing. See the SWA1031 flight status page for this flight to view local times or setup timezone preferences in your user account.


Time Position Orientation Groundspeed Altitude Reporting Facility
EDT Latitude Longitude Course Direction KTS MPH feet Rate Location/Type
Tue 03:08:46 PM 38.6333 -121.5667 117° Southeast 224 258 2,800  Level Northern Cal TRACON
Tue 03:09:46 PM 38.6000 -121.4833 117° Southeast 268 308 6,100 3,500 Climbing Northern Cal TRACON
Tue 03:10:46 PM 38.5667 -121.4000 117° Southeast 288 331 9,800 3,553 Climbing Northern Cal TRACON
Tue 03:11:02 PM 38.5533 -121.3736 123° Southeast 284 327 10,600 2,260 Climbing Oakland Center
Tue 03:12:03 PM 38.5075 -121.2769 121° Southeast 322 371 12,700 2,607 Climbing Oakland Center
Tue 03:13:04 PM 38.4594 -121.1706 120° Southeast 352 405 15,900 3,049 Climbing Oakland Center
Tue 03:14:05 PM 38.4075 -121.0589 121° Southeast 362 417 18,900 1,659 Climbing Oakland Center
Tue 03:15:07 PM 38.3453 -120.9256 121° Southeast 365 420 19,300 1,366 Climbing Oakland Center
Tue 03:16:08 PM 38.2922 -120.8136 121° Southeast 369 425 21,700 2,459 Climbing Oakland Center
Tue 03:17:09 PM 38.2347 -120.6931 121° Southeast 394 453 24,300 2,213 Climbing Oakland Center
Tue 03:18:10 PM 38.1489 -120.6011 140° Southeast 400 460 26,200 1,561 Climbing Oakland Center
Tue 03:19:12 PM 38.0519 -120.5081 143° Southeast 425 489 27,500 1,268 Climbing Oakland Center
Tue 03:20:13 PM 37.9503 -120.4083 142° Southeast 449 517 28,800 738 Climbing Oakland Center
Tue 03:21:14 PM 37.8525 -120.2950 138° Southeast 470 541 29,000 98 Climbing Oakland Center
Tue 03:22:16 PM 37.7525 -120.1908 141° Southeast 468 539 29,000 683 Level Oakland Center
Tue 03:23:17 PM 37.6331 -120.1275 157° South 455 524 30,400 984 Climbing Oakland Center
Tue 03:24:18 PM 37.5217 -120.0603 154° Southeast 444 511 31,000 295 Climbing Oakland Center
Tue 03:25:19 PM 37.3889 -119.9803 154° Southeast 438 504 31,000  Level Oakland Center
Tue 03:26:20 PM 37.2767 -119.9136 155° Southeast 443 510 31,000  Level Oakland Center
Tue 03:27:21 PM 37.1650 -119.8472 155° Southeast 444 511 31,000  Level Oakland Center
Tue 03:28:23 PM 37.0514 -119.7786 154° Southeast 445 512 31,000  Level Oakland Center
Tue 03:29:24 PM 36.9378 -119.7111 155° Southeast 449 517 31,000  Level Oakland Center
Tue 03:30:25 PM 36.8244 -119.6433 154° Southeast 450 518 31,000  Level Oakland Center
Tue 03:31:26 PM 36.7103 -119.5778 155° Southeast 448 516 31,000  Level Oakland Center
Tue 03:32:27 PM 36.5978 -119.5119 155° Southeast 447 514 31,000  Level Oakland Center
Tue 03:33:28 PM 36.4833 -119.4458 155° Southeast 452 520 31,000  Level Oakland Center
Tue 03:34:30 PM 36.3700 -119.3800 155° Southeast 449 517 31,000 -49 Level Oakland Center
Tue 03:35:31 PM 36.2556 -119.3144 155° Southeast 450 518 30,900  Descending Oakland Center
Tue 03:36:32 PM 36.1414 -119.2503 156° South 450 518 31,000 49 Climbing Oakland Center
Tue 03:37:33 PM 36.0244 -119.1831 155° Southeast 462 532 31,000  Level Oakland Center
Tue 03:38:35 PM 35.8919 -119.1100 156° South 436 502 31,000  Level Oakland Center
Tue 03:39:36 PM 35.7803 -119.0464 155° Southeast 439 505 31,000  Level Oakland Center
Tue 03:40:37 PM 35.6675 -118.9819 155° Southeast 442 509 31,000  Level Oakland Center
Tue 03:41:38 PM 35.5542 -118.9189 156° South 444 511 31,000  Level Oakland Center
Tue 03:42:39 PM 35.4394 -118.8544 155° Southeast 448 516 31,000  Level Oakland Center
Tue 03:43:41 PM 35.3247 -118.7903 155° Southeast 451 519 31,000  Level Oakland Center
Tue 03:44:42 PM 35.2103 -118.7264 155° Southeast 452 520 31,000  Level Oakland Center
Tue 03:44:57 PM 35.1878 -118.7136 155° Southeast 451 519 31,000  Level Los Angeles Center
Tue 03:45:59 PM 35.0731 -118.6500 156° South 450 518 31,000 -484 Level Los Angeles Center
Tue 03:47:01 PM 34.9567 -118.5358 141° Southeast 454 522 30,000 -1,452 Descending Los Angeles Center
Tue 03:48:03 PM 34.8797 -118.4231 130° Southeast 450 518 28,000 -2,032 Descending Los Angeles Center
Tue 03:49:05 PM 34.8008 -118.3103 130° Southeast 444 511 25,800 -2,177 Descending Los Angeles Center
Tue 03:50:07 PM 34.7269 -118.2039 130° Southeast 427 491 23,500 -2,162 Descending Los Angeles Center
Tue 03:51:21 PM 34.6375 -118.0758 130° Southeast 418 481 20,900 -1,852 Descending Los Angeles Center
Tue 03:52:36 PM 34.5647 -117.9200 120° Southeast 380 437 18,900 -1,752 Descending Los Angeles Center
Tue 03:53:38 PM 34.5139 -117.8103 119° Southeast 377 434 16,900 -1,645 Descending Los Angeles Center
Tue 03:54:40 PM 34.4664 -117.7083 119° Southeast 354 407 15,500 -1,306 Descending Los Angeles Center
Tue 03:55:42 PM 34.4203 -117.6078 119° Southeast 345 397 14,200 -780 Descending Los Angeles Center
Tue 03:56:43 PM 34.3814 -117.5136 117° Southeast 324 373 13,900 -968 Descending Los Angeles Center
Tue 03:57:46 PM 34.3319 -117.4119 120° Southeast 292 336 12,200 -1,776 Descending Los Angeles Center
Tue 03:58:48 PM 34.2767 -117.3344 131° Southeast 293 337 10,200 -1,488 Descending Los Angeles Center
Tue 03:59:51 PM 34.2106 -117.3147 166° South 250 288 9,100 -1,258 Descending Los Angeles Center
Tue 04:00:52 PM 34.1539 -117.2969 165° South 219 252 7,600 -1,761 Descending Los Angeles Center
Tue 04:01:40 PM 34.1167 -117.3167 204° Southwest 207 238 5,900 -2,000 Descending Southern California TRACON
Tue 04:02:40 PM 34.0833 -117.3667 231° Southwest 215 247 4,000 -1,421 Descending Southern California TRACON
Tue 04:03:34 PM 34.0667 -117.4167 248° West 184 212 3,200 -800 Descending Southern California TRACON
Tue 04:04:40 PM 34.0500 -117.4833 253° West 167 192 2,400 -750 Descending Southern California TRACON
Tue 04:05:34 PM 34.0500 -117.5333 270° West 138 159 1,700 -684 Descending Southern California TRACON
Tue 04:06:34 PM 34.0500 -117.5667 270° West 132 152 1,100 -600 Descending Southern California TRACON
Tue 04:08:00 PM 34.0500 -117.6000 270° West  Level FlightAware Approximate

Login

Don't have an account? Register now (free) for customized features, flight alerts, and more!